Terminal Aerodrome Forecast
Issued by NWS

Current Version | Previous Version | Text Only | Print | Product List | Glossary On
Versions: 1 2 3 4 5 6 7 8 9 10 11 12 13 14 15 16
967
FTUS42 KILM 220539
TAFCRE
TAF
KCRE 220539Z 2206/2306 22004KT P6SM FEW006 BKN200
      TEMPO 2208/2212 2SM BR BKN005 BKN015
     FM221300 23004KT P6SM BKN020 BKN200
     FM221500 19009KT P6SM SCT025 SCT200
     FM230000 21011KT P6SM SCT010 BKN120=

USA.gov is the U.S. government's official web portal to all federal, state and local government web resources and services.